Time;durP1;ratioP1;P1;durP2;ratioP2;P2;SDS_P1;SDS_P2;PMS_P1;PMS_P2;Temp;Humidity;BMP_temperature;BMP_pressure;BME280_temperature;BME280_humidity;BME280_pressure;Samples;Min_cycle;Max_cycle;Signal;HPM_P1;HPM_P2
2021/12/08 00:00:53;;;;;;;10.10;4.75;;;3.40;99.90;;;;;;5092949;28;20043;-70
2021/12/08 00:03:20;;;;;;;9.90;4.55;;;3.40;99.90;;;;;;5094232;28;20111;-70
2021/12/08 00:05:46;;;;;;;7.45;4.45;;;3.40;99.90;;;;;;5094330;28;20390;-70
2021/12/08 00:08:15;;;;;;;13.00;4.43;;;3.40;99.90;;;;;;5092902;28;20127;-69
2021/12/08 00:13:22;;;;;;;12.80;5.20;;;3.40;99.90;;;;;;5058908;28;20056;-70
2021/12/08 00:15:52;;;;;;;5.13;4.05;;;3.40;99.90;;;;;;5074362;28;20041;-70
2021/12/08 00:18:24;;;;;;;8.85;4.32;;;3.40;99.90;;;;;;5090116;28;20496;-70
2021/12/08 00:20:52;;;;;;;10.13;4.15;;;3.40;99.90;;;;;;5092599;28;20044;-70
2021/12/08 00:23:18;;;;;;;10.93;4.50;;;3.40;99.90;;;;;;5092235;28;20052;-70
2021/12/08 00:25:44;;;;;;;8.15;4.40;;;3.50;99.90;;;;;;5092291;28;20082;-71
2021/12/08 00:28:10;;;;;;;8.55;4.25;;;3.50;99.90;;;;;;5091791;28;20444;-70
2021/12/08 00:30:38;;;;;;;8.48;4.57;;;3.50;99.90;;;;;;5092530;28;20048;-70
2021/12/08 00:33:05;;;;;;;13.15;4.78;;;3.50;99.90;;;;;;5093514;28;20043;-71
2021/12/08 00:35:31;;;;;;;11.57;4.95;;;3.50;99.90;;;;;;5092282;28;20047;-71
2021/12/08 00:37:58;;;;;;;11.43;3.85;;;3.50;99.90;;;;;;5092449;28;20036;-71
2021/12/08 00:40:25;;;;;;;9.75;4.40;;;3.50;99.90;;;;;;5092086;28;20073;-70
2021/12/08 00:42:51;;;;;;;10.85;4.18;;;3.50;99.90;;;;;;5092039;28;20178;-71
2021/12/08 00:45:17;;;;;;;9.85;4.43;;;3.50;99.90;;;;;;5092068;28;20134;-71
2021/12/08 00:47:45;;;;;;;7.22;3.95;;;3.50;99.90;;;;;;5093565;28;20443;-71
2021/12/08 00:50:12;;;;;;;10.18;4.28;;;3.50;99.90;;;;;;5091546;28;20396;-70
2021/12/08 00:52:38;;;;;;;7.63;3.97;;;3.50;99.90;;;;;;5091571;28;20040;-71
2021/12/08 00:55:06;;;;;;;10.23;4.15;;;3.60;99.90;;;;;;5092874;28;20107;-71
2021/12/08 00:57:32;;;;;;;10.13;4.03;;;3.60;99.90;;;;;;5091681;28;20115;-70
2021/12/08 00:59:57;;;;;;;13.77;4.85;;;3.60;99.90;;;;;;5091476;28;20079;-71
2021/12/08 01:02:23;;;;;;;8.32;4.05;;;3.60;99.90;;;;;;5091703;28;20047;-71
2021/12/08 01:04:48;;;;;;;9.63;4.18;;;3.70;99.90;;;;;;5093025;28;20055;-71
2021/12/08 01:07:14;;;;;;;10.32;4.40;;;3.70;99.90;;;;;;5074896;28;20032;-71
2021/12/08 01:09:40;;;;;;;8.45;4.70;;;3.70;99.90;;;;;;5091588;28;20032;-71
2021/12/08 01:12:06;;;;;;;10.63;3.85;;;3.70;99.90;;;;;;5091276;28;20044;-71
2021/12/08 01:14:34;;;;;;;11.95;4.72;;;3.70;99.90;;;;;;5091423;28;20040;-71
2021/12/08 01:17:02;;;;;;;6.78;3.92;;;3.80;99.90;;;;;;5091851;28;20084;-71
2021/12/08 01:19:27;;;;;;;6.68;4.47;;;3.70;99.90;;;;;;5091485;28;20044;-71
2021/12/08 01:21:54;;;;;;;11.32;4.55;;;3.80;99.90;;;;;;5074178;28;20472;-71
2021/12/08 01:24:20;;;;;;;7.10;3.97;;;3.70;99.90;;;;;;5091461;28;20044;-71
2021/12/08 01:26:46;;;;;;;8.52;3.83;;;3.80;99.90;;;;;;5090682;28;20508;-71
2021/12/08 01:29:12;;;;;;;6.60;3.88;;;3.80;99.90;;;;;;5091176;28;20043;-71
2021/12/08 01:31:41;;;;;;;9.23;4.18;;;3.80;99.90;;;;;;5092433;28;20166;-71
2021/12/08 01:34:09;;;;;;;9.75;4.57;;;3.80;99.90;;;;;;5091169;28;20036;-71
2021/12/08 01:36:35;;;;;;;8.77;5.15;;;3.80;99.90;;;;;;5091506;28;20589;-72
2021/12/08 01:39:02;;;;;;;8.27;3.97;;;3.80;99.90;;;;;;5092552;28;20448;-72
2021/12/08 01:41:28;;;;;;;5.25;3.88;;;3.80;99.90;;;;;;5092746;28;20046;-72
2021/12/08 01:46:38;;;;;;;11.35;4.35;;;3.80;99.90;;;;;;5090961;28;20044;-71
2021/12/08 01:49:04;;;;;;;8.20;3.97;;;3.80;99.90;;;;;;5092274;28;20054;-71
2021/12/08 01:51:31;;;;;;;10.35;4.55;;;3.80;99.90;;;;;;5091159;28;20052;-71
2021/12/08 01:54:01;;;;;;;8.95;3.42;;;3.80;99.90;;;;;;5090557;28;20119;-71
2021/12/08 01:56:28;;;;;;;7.78;3.40;;;3.80;99.90;;;;;;5090747;28;20115;-71
2021/12/08 01:58:54;;;;;;;7.40;3.35;;;3.80;99.90;;;;;;5091936;28;20044;-71
2021/12/08 02:01:22;;;;;;;4.45;3.50;;;3.80;99.90;;;;;;5090846;28;20032;-71
2021/12/08 02:03:48;;;;;;;7.93;3.20;;;3.90;99.90;;;;;;5091752;28;20042;-71
2021/12/08 02:06:17;;;;;;;10.07;3.78;;;3.90;99.90;;;;;;5090334;28;20115;-71
2021/12/08 02:08:44;;;;;;;9.00;4.15;;;3.80;99.90;;;;;;5092145;28;20075;-71
2021/12/08 02:11:11;;;;;;;10.18;4.32;;;3.90;99.90;;;;;;5091804;28;20051;-71
2021/12/08 02:13:39;;;;;;;12.90;3.88;;;3.80;99.90;;;;;;5091420;28;20072;-71
2021/12/08 02:16:10;;;;;;;7.68;3.55;;;3.80;99.90;;;;;;5090325;28;20046;-71
2021/12/08 02:18:37;;;;;;;7.45;3.75;;;3.90;99.90;;;;;;5090468;28;20044;-71
2021/12/08 02:21:25;;;;;;;6.88;3.70;;;3.80;99.90;;;;;;5091639;28;20040;-72
2021/12/08 02:23:51;;;;;;;7.40;3.72;;;3.80;99.90;;;;;;5091083;28;20044;-71
2021/12/08 02:26:17;;;;;;;8.93;3.30;;;3.80;99.90;;;;;;5089472;28;20404;-71
2021/12/08 02:28:44;;;;;;;8.45;3.50;;;3.80;99.90;;;;;;5090502;28;20135;-71
2021/12/08 02:31:13;;;;;;;8.57;3.50;;;3.80;99.90;;;;;;5090165;28;20110;-71
2021/12/08 02:49:49;;;;;;;5.50;3.25;;;3.80;99.90;;;;;;5091442;28;20083;-71
2021/12/08 02:52:15;;;;;;;7.25;3.83;;;3.80;99.90;;;;;;5090931;28;20076;-71
2021/12/08 02:54:48;;;;;;;8.57;4.47;;;3.80;99.90;;;;;;5090000;28;20075;-71
2021/12/08 02:57:16;;;;;;;6.28;3.88;;;3.90;99.90;;;;;;5091103;28;20068;-71
2021/12/08 02:59:43;;;;;;;6.43;4.10;;;3.90;99.90;;;;;;5089597;28;20040;-71
2021/12/08 03:02:09;;;;;;;8.40;3.63;;;3.90;99.90;;;;;;5091169;28;20039;-71
2021/12/08 03:04:35;;;;;;;7.20;4.30;;;3.90;99.90;;;;;;5089701;28;20047;-70
2021/12/08 03:07:01;;;;;;;9.52;4.40;;;4.00;99.90;;;;;;5089891;28;20377;-71
2021/12/08 03:09:26;;;;;;;7.43;4.32;;;4.00;99.90;;;;;;5089672;28;20126;-71
2021/12/08 03:11:54;;;;;;;10.48;4.35;;;4.00;99.90;;;;;;5089143;28;20032;-70
2021/12/08 03:14:20;;;;;;;10.13;5.00;;;4.00;99.90;;;;;;5089427;28;20083;-70
2021/12/08 03:16:52;;;;;;;8.90;4.60;;;4.10;99.90;;;;;;5090701;28;20076;-71
2021/12/08 03:19:21;;;;;;;5.07;4.50;;;4.10;99.90;;;;;;5089766;28;20044;-71
2021/12/08 03:21:48;;;;;;;6.57;4.32;;;4.10;99.90;;;;;;5089354;28;20426;-71
2021/12/08 03:26:49;;;;;;;5.97;4.20;;;4.20;99.90;;;;;;5088837;28;20055;-71
2021/12/08 03:29:22;;;;;;;7.00;4.10;;;4.20;99.90;;;;;;5089518;28;20032;-71
2021/12/08 03:31:51;;;;;;;9.43;4.35;;;4.20;99.90;;;;;;5089098;28;20042;-71
2021/12/08 03:34:19;;;;;;;9.60;5.10;;;4.20;99.90;;;;;;5090728;28;20036;-72
2021/12/08 03:36:45;;;;;;;10.45;5.00;;;4.20;99.90;;;;;;5089248;28;20127;-71
2021/12/08 03:39:11;;;;;;;8.27;4.57;;;4.20;99.90;;;;;;5090775;28;20077;-72
2021/12/08 03:41:37;;;;;;;4.85;3.95;;;4.30;99.90;;;;;;5090655;28;20036;-71
2021/12/08 03:44:04;;;;;;;8.73;4.50;;;4.30;99.90;;;;;;5089446;28;20138;-72
2021/12/08 03:46:32;;;;;;;8.23;4.60;;;4.30;99.90;;;;;;5089558;28;20040;-71
2021/12/08 03:48:58;;;;;;;6.05;4.53;;;4.30;99.90;;;;;;5089397;28;20086;-72
2021/12/08 03:51:24;;;;;;;7.00;4.90;;;4.40;99.90;;;;;;5089279;28;20089;-72
2021/12/08 03:53:50;;;;;;;7.07;4.97;;;4.40;99.90;;;;;;5090331;28;20071;-72
2021/12/08 03:56:16;;;;;;;9.13;5.55;;;4.40;99.90;;;;;;5089183;28;20050;-72
2021/12/08 03:58:41;;;;;;;10.25;5.35;;;4.50;99.90;;;;;;5090690;28;20047;-71
2021/12/08 04:01:07;;;;;;;10.35;6.18;;;4.50;99.90;;;;;;5089239;28;20040;-72
2021/12/08 04:03:35;;;;;;;9.38;6.53;;;4.60;99.90;;;;;;5089010;28;20044;-71
2021/12/08 04:06:13;;;;;;;9.98;6.55;;;4.60;99.90;;;;;;5089092;28;20377;-72
2021/12/08 04:08:43;;;;;;;10.40;6.55;;;4.70;99.90;;;;;;5089159;28;20523;-72
2021/12/08 04:11:10;;;;;;;12.07;6.53;;;4.70;99.90;;;;;;5089011;28;20507;-71
2021/12/08 04:13:48;;;;;;;10.25;7.50;;;4.70;99.90;;;;;;5088520;28;20043;-71
2021/12/08 04:16:18;;;;;;;12.15;6.20;;;4.80;99.90;;;;;;5088847;28;20051;-71
2021/12/08 04:18:44;;;;;;;11.48;6.78;;;4.80;99.90;;;;;;5088820;28;20044;-71
2021/12/08 04:21:12;;;;;;;10.82;6.80;;;4.80;99.90;;;;;;5088740;28;20044;-71
2021/12/08 04:23:40;;;;;;;9.45;6.53;;;4.80;99.90;;;;;;5089953;28;20055;-71
2021/12/08 04:26:11;;;;;;;13.70;7.35;;;4.80;99.90;;;;;;5091465;28;20101;-72
2021/12/08 04:28:38;;;;;;;10.30;6.80;;;4.90;99.90;;;;;;5092567;28;20056;-71
2021/12/08 04:31:09;;;;;;;9.55;6.60;;;4.90;99.90;;;;;;5092725;28;20036;-72
2021/12/08 04:33:36;;;;;;;9.07;6.63;;;4.90;99.90;;;;;;5092233;28;20500;-72
2021/12/08 04:36:05;;;;;;;13.07;6.60;;;4.90;99.90;;;;;;5092333;28;20048;-72
2021/12/08 04:38:38;;;;;;;10.07;6.47;;;4.90;99.90;;;;;;5092228;28;20040;-71
2021/12/08 04:41:09;;;;;;;;;;;5.00;99.90;;;;;;5092792;28;20044;-72
2021/12/08 04:46:43;;;;;;;10.23;6.65;;;5.00;99.90;;;;;;5093293;28;20044;-72
2021/12/08 04:49:33;;;;;;;12.98;6.20;;;5.00;99.90;;;;;;5093483;28;20067;-72
2021/12/08 04:52:11;;;;;;;9.75;6.97;;;5.00;99.90;;;;;;5091806;28;20040;-72
2021/12/08 05:06:39;;;;;;;11.50;6.45;;;5.10;99.90;;;;;;5083082;28;20048;-72
2021/12/08 05:09:13;;;;;;;8.88;6.13;;;5.20;99.90;;;;;;5093403;28;20040;-71
2021/12/08 05:11:45;;;;;;;9.82;6.43;;;5.20;99.90;;;;;;5093107;28;20063;-71
2021/12/08 05:14:21;;;;;;;11.10;6.68;;;5.20;99.90;;;;;;5091957;28;20040;-71
2021/12/08 05:16:54;;;;;;;10.50;6.18;;;5.20;99.90;;;;;;5093112;28;20055;-71
2021/12/08 05:19:27;;;;;;;9.57;5.53;;;5.30;99.90;;;;;;5091901;28;20462;-71
2021/12/08 05:22:19;;;;;;;8.80;5.75;;;5.30;99.90;;;;;;5092666;28;20036;-71
2021/12/08 05:24:48;;;;;;;10.55;5.68;;;5.30;99.90;;;;;;5091469;28;20101;-71
2021/12/08 05:27:18;;;;;;;8.43;5.60;;;5.40;99.90;;;;;;5090991;28;20131;-71
2021/12/08 05:29:53;;;;;;;8.52;5.82;;;5.40;99.90;;;;;;5092593;28;20479;-71
2021/12/08 05:32:20;;;;;;;11.73;6.10;;;5.40;99.90;;;;;;5091069;28;20119;-71
2021/12/08 05:34:47;;;;;;;9.57;6.03;;;5.50;99.90;;;;;;5092884;28;20051;-71
2021/12/08 05:37:15;;;;;;;10.25;5.65;;;5.50;99.90;;;;;;5091151;28;20048;-71
2021/12/08 05:39:41;;;;;;;7.93;6.38;;;5.50;99.90;;;;;;5091204;28;20065;-71
2021/12/08 05:42:11;;;;;;;16.35;6.72;;;5.40;99.90;;;;;;5092307;28;20050;-71
2021/12/08 05:44:38;;;;;;;13.40;6.00;;;5.40;99.90;;;;;;5090928;28;20040;-71
2021/12/08 05:47:11;;;;;;;9.55;5.97;;;5.50;99.90;;;;;;5090971;28;20039;-71
2021/12/08 05:49:37;;;;;;;;;;;5.40;99.90;;;;;;5091326;28;20515;-71
2021/12/08 05:52:05;;;;;;;8.68;5.47;;;5.50;99.90;;;;;;5090857;28;19916;-71
2021/12/08 05:54:35;;;;;;;8.75;5.70;;;5.50;99.90;;;;;;5092174;28;20047;-71
2021/12/08 05:57:17;;;;;;;7.75;5.20;;;5.40;99.90;;;;;;5090833;28;20076;-71
2021/12/08 05:59:44;;;;;;;6.53;4.67;;;5.40;99.90;;;;;;5090819;28;20044;-71
2021/12/08 06:02:16;;;;;;;5.78;4.60;;;5.40;99.90;;;;;;5092092;28;20138;-71
2021/12/08 06:04:42;;;;;;;;;;;5.40;99.90;;;;;;5091397;28;20048;-71
2021/12/08 06:07:09;;;;;;;9.73;5.22;;;5.40;99.90;;;;;;5091959;28;19950;-71
2021/12/08 06:09:36;;;;;;;9.20;5.38;;;5.30;99.90;;;;;;5090708;28;20084;-71
2021/12/08 06:12:03;;;;;;;8.77;4.10;;;5.30;99.90;;;;;;5091641;28;20426;-71
2021/12/08 06:14:32;;;;;;;7.90;4.43;;;5.30;99.90;;;;;;5091616;28;20440;-71
2021/12/08 06:17:01;;;;;;;6.75;4.35;;;5.30;99.90;;;;;;5091932;28;20036;-72
2021/12/08 06:19:27;;;;;;;10.50;5.20;;;5.40;99.90;;;;;;5090612;28;20044;-72
2021/12/08 06:21:53;;;;;;;11.38;4.63;;;5.40;99.90;;;;;;5090150;28;20128;-72
2021/12/08 06:24:20;;;;;;;9.18;4.32;;;5.40;99.90;;;;;;5090261;28;20519;-72
2021/12/08 06:26:47;;;;;;;8.77;4.35;;;5.40;99.90;;;;;;5089843;28;20122;-72
2021/12/08 06:29:17;;;;;;;8.98;4.50;;;5.40;99.90;;;;;;5090619;28;20400;-73
2021/12/08 06:31:43;;;;;;;7.95;4.25;;;5.40;99.90;;;;;;5073244;28;20126;-72
2021/12/08 06:34:09;;;;;;;15.18;4.25;;;5.40;99.90;;;;;;5091389;28;20036;-72
2021/12/08 06:37:06;;;;;;;10.07;4.20;;;5.40;99.90;;;;;;5090354;28;20163;-73
2021/12/08 06:39:41;;;;;;;5.93;4.15;;;5.50;99.90;;;;;;5090214;28;20523;-73
2021/12/08 06:42:11;;;;;;;11.18;4.55;;;5.40;99.90;;;;;;5090103;28;20548;-72
2021/12/08 06:44:40;;;;;;;7.60;4.32;;;5.50;99.90;;;;;;5091412;28;20458;-72
2021/12/08 06:47:13;;;;;;;7.85;3.80;;;5.50;99.90;;;;;;5091078;28;20036;-73
2021/12/08 06:49:39;;;;;;;;;;;5.40;99.90;;;;;;5090707;28;20168;-74
2021/12/08 06:52:10;;;;;;;8.13;3.60;;;5.40;99.90;;;;;;5091229;28;20233;-74
2021/12/08 06:54:40;;;;;;;8.70;3.60;;;5.40;99.90;;;;;;5090275;28;20147;-74
2021/12/08 06:57:33;;;;;;;5.32;3.53;;;5.40;99.90;;;;;;5090063;28;20043;-73
2021/12/08 07:00:16;;;;;;;5.32;3.30;;;5.40;99.90;;;;;;5065040;28;20052;-75
2021/12/08 07:05:52;;;;;;;8.85;3.65;;;5.60;99.90;;;;;;5090892;28;20073;-73
2021/12/08 07:08:17;;;;;;;10.13;2.78;;;5.50;99.90;;;;;;5066350;28;20053;-76
2021/12/08 07:10:45;;;;;;;15.43;2.92;;;5.50;99.90;;;;;;5058667;28;20322;-73
2021/12/08 07:13:18;;;;;;;5.88;3.20;;;5.60;99.90;;;;;;5053046;28;20044;-73
2021/12/08 07:15:50;;;;;;;9.20;3.35;;;5.80;99.90;;;;;;5049706;28;20402;-72
2021/12/08 07:18:25;;;;;;;13.50;4.28;;;5.70;99.90;;;;;;5050922;28;20041;-74
2021/12/08 07:20:55;;;;;;;6.45;2.60;;;5.70;99.90;;;;;;5051055;28;20033;-77
2021/12/08 07:23:46;;;;;;;8.50;3.00;;;5.80;99.90;;;;;;5049780;28;20449;-79
2021/12/08 07:26:20;;;;;;;4.05;2.70;;;5.70;99.90;;;;;;5049503;28;20043;-78
2021/12/08 07:28:47;;;;;;;7.53;2.63;;;5.70;99.90;;;;;;5048410;28;20041;-78
2021/12/08 07:31:19;;;;;;;4.15;2.40;;;5.60;99.90;;;;;;5048194;28;20057;-77
2021/12/08 07:33:45;;;;;;;7.80;2.70;;;5.60;99.90;;;;;;5051731;28;20067;-73
2021/12/08 07:36:16;;;;;;;9.85;3.20;;;5.60;99.90;;;;;;5057935;28;20167;-74
2021/12/08 07:38:44;;;;;;;5.75;3.22;;;5.70;99.90;;;;;;5060162;28;20092;-75
2021/12/08 07:41:41;;;;;;;10.65;2.80;;;6.00;99.90;;;;;;5053691;28;20052;-75
2021/12/08 07:44:11;;;;;;;9.63;3.22;;;6.10;99.90;;;;;;5047426;28;20056;-75
2021/12/08 07:47:03;;;;;;;7.32;2.85;;;5.90;99.90;;;;;;5048611;28;20037;-76
2021/12/08 07:49:33;;;;;;;20.25;3.22;;;5.70;99.90;;;;;;5046674;28;20045;-75
2021/12/08 07:52:04;;;;;;;5.72;2.42;;;6.00;99.90;;;;;;5047459;28;20071;-74
2021/12/08 07:54:32;;;;;;;21.23;4.18;;;6.00;99.90;;;;;;5032424;28;20045;-74
2021/12/08 07:57:00;;;;;;;14.05;3.10;;;6.40;99.90;;;;;;5049191;28;20076;-76
2021/12/08 07:59:28;;;;;;;10.98;3.05;;;6.30;99.90;;;;;;5051034;28;20055;-75
2021/12/08 08:01:57;;;;;;;19.80;3.25;;;6.40;99.90;;;;;;5054082;28;20043;-75
2021/12/08 08:04:26;;;;;;;18.95;2.88;;;6.30;99.90;;;;;;5054440;28;20053;-76
2021/12/08 08:06:55;;;;;;;9.60;2.92;;;6.20;99.90;;;;;;5055312;28;20043;-75
2021/12/08 08:09:25;;;;;;;24.63;3.90;;;6.60;99.90;;;;;;5056377;28;20033;-76
2021/12/08 08:11:56;;;;;;;7.10;2.75;;;6.30;99.90;;;;;;5054426;28;20032;-73
2021/12/08 08:14:25;;;;;;;20.05;4.43;;;6.40;99.90;;;;;;5052353;28;20048;-69
2021/12/08 08:16:55;;;;;;;8.88;3.17;;;6.40;99.90;;;;;;5052325;28;20071;-69
2021/12/08 08:19:26;;;;;;;9.30;3.20;;;6.40;99.90;;;;;;5053757;28;20041;-69
2021/12/08 08:22:07;;;;;;;14.25;2.70;;;6.40;99.90;;;;;;5053473;28;20465;-70
2021/12/08 08:24:34;;;;;;;6.50;2.53;;;6.40;99.90;;;;;;5053748;28;20044;-69
2021/12/08 08:27:02;;;;;;;20.23;3.70;;;6.40;99.90;;;;;;5052363;28;20048;-69
2021/12/08 08:29:29;;;;;;;53.50;12.90;;;6.40;99.90;;;;;;5053490;28;20094;-69
2021/12/08 08:32:01;;;;;;;8.93;3.40;;;6.30;99.90;;;;;;5051601;28;20037;-70
2021/12/08 08:34:37;;;;;;;11.55;2.83;;;6.40;99.90;;;;;;5052082;28;20067;-71
2021/12/08 08:37:05;;;;;;;15.45;3.00;;;6.30;99.90;;;;;;5053233;28;20461;-71
2021/12/08 08:39:34;;;;;;;6.88;3.40;;;6.40;99.90;;;;;;5051990;28;20044;-71
2021/12/08 08:42:08;;;;;;;11.55;3.08;;;6.50;99.90;;;;;;5051911;28;20512;-71
2021/12/08 08:44:37;;;;;;;7.78;2.70;;;6.40;99.90;;;;;;5051768;28;20049;-71
2021/12/08 08:47:08;;;;;;;7.10;2.80;;;6.40;99.90;;;;;;5068588;28;20115;-71
2021/12/08 08:49:35;;;;;;;7.05;2.60;;;6.40;99.90;;;;;;5071506;28;20040;-71
2021/12/08 08:52:32;;;;;;;9.25;3.80;;;6.70;99.90;;;;;;5070998;28;20541;-72
2021/12/08 08:55:02;;;;;;;6.22;2.83;;;6.60;99.90;;;;;;5071520;28;20048;-71
2021/12/08 08:57:37;;;;;;;8.80;2.80;;;6.50;99.90;;;;;;5072685;28;20146;-71
2021/12/08 09:00:25;;;;;;;7.78;2.72;;;6.60;99.90;;;;;;5071244;28;20048;-71
2021/12/08 09:02:54;;;;;;;10.73;2.88;;;6.70;99.90;;;;;;5070874;28;20091;-73
2021/12/08 09:05:26;;;;;;;8.95;3.15;;;6.70;99.90;;;;;;5071031;28;20123;-73
2021/12/08 09:07:53;;;;;;;;;;;6.70;99.90;;;;;;5071475;28;20063;-73
2021/12/08 09:10:46;;;;;;;8.05;2.83;;;6.60;99.90;;;;;;5070820;28;19917;-73
2021/12/08 09:13:21;;;;;;;7.22;2.38;;;6.60;99.90;;;;;;5070303;28;20068;-73
2021/12/08 09:15:54;;;;;;;9.23;2.45;;;6.60;99.90;;;;;;5071058;28;20037;-73
2021/12/08 09:18:53;;;;;;;13.38;3.80;;;6.70;99.90;;;;;;5071155;28;20040;-73
2021/12/08 09:21:31;;;;;;;11.65;2.70;;;6.70;99.90;;;;;;5071306;28;20447;-73
2021/12/08 09:24:07;;;;;;;9.65;2.88;;;6.70;99.90;;;;;;5071031;28;20063;-73
2021/12/08 09:26:36;;;;;;;8.02;2.75;;;6.70;99.90;;;;;;5070892;28;20059;-72
2021/12/08 09:29:19;;;;;;;8.85;3.00;;;6.60;99.90;;;;;;5070919;28;20040;-72
2021/12/08 09:31:48;;;;;;;;;;;6.70;99.90;;;;;;5070625;28;20071;-73
2021/12/08 09:34:22;;;;;;;8.05;2.70;;;6.80;99.90;;;;;;5067466;28;19927;-73
2021/12/08 09:36:52;;;;;;;12.43;3.05;;;6.70;99.90;;;;;;5056254;28;20052;-73
2021/12/08 09:39:44;;;;;;;9.52;2.70;;;6.70;99.90;;;;;;5052281;28;20041;-73
2021/12/08 09:42:36;;;;;;;9.95;2.72;;;6.60;99.90;;;;;;5050420;28;20049;-71
2021/12/08 09:45:09;;;;;;;31.27;4.45;;;6.70;99.90;;;;;;5048466;28;20124;-72
2021/12/08 09:47:35;;;;;;;19.52;3.83;;;6.70;99.90;;;;;;5050623;28;20044;-71
2021/12/08 09:50:04;;;;;;;6.43;2.83;;;6.70;99.90;;;;;;5051688;28;20396;-70
2021/12/08 09:52:30;;;;;;;29.75;5.25;;;6.50;99.90;;;;;;5050161;28;20041;-71
2021/12/08 09:55:01;;;;;;;15.50;3.78;;;6.70;99.90;;;;;;5051806;28;20053;-72
2021/12/08 09:57:28;;;;;;;10.68;3.33;;;6.60;99.90;;;;;;5051399;28;20503;-71
2021/12/08 09:59:54;;;;;;;8.38;2.58;;;6.80;99.90;;;;;;5050976;28;20134;-72
2021/12/08 10:02:31;;;;;;;13.32;2.72;;;6.80;99.90;;;;;;5052877;28;20401;-70
2021/12/08 10:04:59;;;;;;;53.22;7.60;;;6.80;99.90;;;;;;5051349;28;20056;-71
2021/12/08 10:07:26;;;;;;;10.25;2.80;;;7.00;99.90;;;;;;5053755;28;20145;-71
2021/12/08 10:09:52;;;;;;;12.93;3.10;;;6.90;99.90;;;;;;5050907;28;20048;-71
2021/12/08 10:12:18;;;;;;;236.30;20.13;;;6.80;99.90;;;;;;5050356;28;20037;-70
2021/12/08 10:14:46;;;;;;;21.55;3.00;;;6.80;99.90;;;;;;5051791;28;20099;-71
2021/12/08 10:17:13;;;;;;;25.15;4.30;;;6.80;99.90;;;;;;5050353;28;20060;-72
2021/12/08 10:19:40;;;;;;;9.32;3.10;;;6.80;99.90;;;;;;5050121;28;20077;-71
2021/12/08 10:22:17;;;;;;;56.10;5.90;;;6.70;99.90;;;;;;5049498;28;20045;-73
2021/12/08 10:25:00;;;;;;;13.73;3.55;;;6.70;99.90;;;;;;5051535;28;20079;-74
2021/12/08 10:27:25;;;;;;;;;;;6.90;99.90;;;;;;5050838;28;20068;-73
2021/12/08 10:29:51;;;;;;;23.40;5.05;;;6.90;99.90;;;;;;5050173;28;20387;-77
2021/12/08 10:32:16;;;;;;;9.40;2.97;;;6.70;99.90;;;;;;5066569;28;20044;-76
2021/12/08 10:34:53;;;;;;;7.13;2.97;;;6.80;99.90;;;;;;5069298;28;20036;-74
2021/12/08 10:37:20;;;;;;;9.55;3.08;;;6.80;99.90;;;;;;5069586;28;20093;-75
2021/12/08 10:39:48;;;;;;;10.73;2.97;;;6.90;99.90;;;;;;5066328;28;20040;-74
2021/12/08 10:42:26;;;;;;;15.48;3.88;;;6.70;99.90;;;;;;5064953;28;20075;-74
2021/12/08 10:45:23;;;;;;;13.50;3.78;;;6.70;99.90;;;;;;5069557;28;20435;-75
2021/12/08 10:47:50;;;;;;;12.07;3.20;;;6.90;99.90;;;;;;5049105;28;20533;-74
2021/12/08 10:56:15;;;;;;;9.02;3.22;;;7.30;99.90;;;;;;5072541;28;20048;-69
2021/12/08 10:58:47;;;;;;;19.10;3.10;;;7.30;99.90;;;;;;5070479;28;20044;-73
2021/12/08 11:01:25;;;;;;;7.15;2.80;;;7.60;99.90;;;;;;5069070;28;20070;-72
2021/12/08 11:03:59;;;;;;;11.70;3.00;;;7.20;99.90;;;;;;5069001;28;20402;-72
2021/12/08 11:06:36;;;;;;;10.90;3.00;;;7.50;99.90;;;;;;5071355;28;20048;-72
2021/12/08 11:09:05;;;;;;;9.48;3.05;;;7.60;99.90;;;;;;5067394;28;20032;-73
2021/12/08 11:11:33;;;;;;;12.70;3.22;;;7.50;99.90;;;;;;5068817;28;20048;-73
2021/12/08 11:14:04;;;;;;;41.38;5.53;;;7.50;99.90;;;;;;5070888;28;20033;-75
2021/12/08 11:16:34;;;;;;;15.65;3.75;;;7.50;99.90;;;;;;5070162;28;20037;-73
2021/12/08 11:19:05;;;;;;;19.00;3.50;;;7.40;99.90;;;;;;5041809;28;20044;-73
2021/12/08 11:21:37;;;;;;;16.75;3.15;;;7.60;99.90;;;;;;5059942;28;20350;-71
2021/12/08 11:24:05;;;;;;;;;;;7.60;99.90;;;;;;5036682;28;20044;-71
2021/12/08 11:26:37;;;;;;;11.40;3.05;;;7.60;99.90;;;;;;5048995;28;19921;-72
2021/12/08 11:29:21;;;;;;;6.15;3.05;;;7.80;99.90;;;;;;5050104;28;20045;-73
2021/12/08 11:31:59;;;;;;;9.23;3.05;;;7.50;99.90;;;;;;5047836;28;20072;-70
2021/12/08 11:34:29;;;;;;;10.40;2.90;;;7.40;99.90;;;;;;5051247;28;20076;-70
2021/12/08 11:37:12;;;;;;;7.60;2.97;;;7.40;99.90;;;;;;5052973;28;20080;-70
2021/12/08 11:40:01;;;;;;;12.00;2.88;;;7.30;99.90;;;;;;5054288;28;20173;-70
2021/12/08 11:42:34;;;;;;;6.82;3.20;;;7.30;99.90;;;;;;5053354;28;20178;-70
2021/12/08 11:45:09;;;;;;;10.02;2.75;;;7.30;99.90;;;;;;5052153;28;20053;-70
2021/12/08 11:47:36;;;;;;;10.60;3.22;;;7.20;99.90;;;;;;5054012;28;20037;-71
2021/12/08 11:50:11;;;;;;;13.43;3.90;;;7.20;99.90;;;;;;5054238;28;20493;-69
2021/12/08 11:52:37;;;;;;;46.47;6.53;;;7.30;99.90;;;;;;5052256;28;20044;-73
2021/12/08 11:55:06;;;;;;;10.10;2.90;;;7.30;99.90;;;;;;5052721;28;20098;-71
2021/12/08 11:57:42;;;;;;;9.88;2.92;;;7.30;99.90;;;;;;5052363;28;20098;-70
2021/12/08 12:00:19;;;;;;;12.75;3.00;;;7.30;99.90;;;;;;5052100;28;20091;-71
2021/12/08 12:02:57;;;;;;;12.10;3.30;;;7.10;99.90;;;;;;5056488;28;20040;-72
2021/12/08 12:05:28;;;;;;;11.05;4.20;;;7.20;99.90;;;;;;5071720;28;20128;-72
2021/12/08 12:07:55;;;;;;;17.33;3.15;;;7.40;99.90;;;;;;5072049;28;20527;-72
2021/12/08 12:10:23;;;;;;;9.07;3.63;;;7.40;99.90;;;;;;5064799;28;20049;-73
2021/12/08 12:12:50;;;;;;;12.43;3.00;;;7.20;99.90;;;;;;5044603;28;20489;-72
2021/12/08 12:15:19;;;;;;;107.63;8.32;;;7.20;99.90;;;;;;5053262;28;20488;-71
2021/12/08 12:17:49;;;;;;;18.42;3.85;;;7.50;99.90;;;;;;5053213;28;20044;-71
2021/12/08 12:20:23;;;;;;;12.00;2.85;;;7.20;99.90;;;;;;5053293;28;20040;-71
2021/12/08 12:23:45;;;;;;;13.65;4.18;;;7.10;99.90;;;;;;5051677;28;20044;-71
2021/12/08 12:26:30;;;;;;;10.15;2.75;;;7.20;99.90;;;;;;5014094;28;20077;-71
2021/12/08 12:29:18;;;;;;;16.88;4.97;;;7.30;99.90;;;;;;5049252;28;20061;-71
2021/12/08 12:32:03;;;;;;;19.23;4.18;;;7.40;99.90;;;;;;5051065;28;20059;-71
2021/12/08 12:34:32;;;;;;;12.60;3.25;;;7.50;99.90;;;;;;5051752;28;20061;-69
2021/12/08 12:37:02;;;;;;;13.43;3.28;;;7.30;99.90;;;;;;5051598;28;20044;-71
2021/12/08 12:39:29;;;;;;;11.52;3.75;;;7.10;99.90;;;;;;5051714;28;20082;-71
2021/12/08 12:42:11;;;;;;;19.15;4.55;;;7.00;99.90;;;;;;5052787;28;20037;-70
2021/12/08 12:44:40;;;;;;;13.90;4.33;;;7.00;99.90;;;;;;5052852;28;20145;-72
2021/12/08 12:50:24;;;;;;;9.52;2.70;;;7.10;99.90;;;;;;5044098;28;20303;-68
2021/12/08 12:53:00;;;;;;;8.23;3.08;;;7.00;99.90;;;;;;5042604;28;20080;-67
2021/12/08 12:55:27;;;;;;;12.40;2.72;;;7.00;99.90;;;;;;5042647;28;20064;-69
2021/12/08 12:58:02;;;;;;;11.15;3.38;;;6.90;99.90;;;;;;5042948;28;20045;-71
2021/12/08 13:00:44;;;;;;;9.90;2.50;;;6.90;99.90;;;;;;5042551;28;20034;-71
2021/12/08 13:03:34;;;;;;;26.27;3.53;;;6.90;99.90;;;;;;5042371;28;20045;-71
2021/12/08 13:05:59;;;;;;;;;;;7.00;99.90;;;;;;5044439;28;20050;-70
2021/12/08 13:08:32;;;;;;;;;;;7.00;99.90;;;;;;5044446;28;19929;-70
2021/12/08 13:11:00;;;;;;;;;;;7.00;99.90;;;;;;5043221;28;19917;-71
2021/12/08 13:13:26;;;;;;;;;;;7.00;99.90;;;;;;5043142;28;20464;-69
2021/12/08 13:15:52;;;;;;;;;;;7.10;99.90;;;;;;5044779;28;20100;-69
2021/12/08 13:18:18;;;;;;;;;;;7.00;99.90;;;;;;5043221;28;20380;-70
2021/12/08 13:20:57;;;;;;;;;;;7.20;99.90;;;;;;5043014;28;20041;-71
2021/12/08 13:23:27;;;;;;;;;;;7.30;99.90;;;;;;5042821;28;19917;-70
2021/12/08 13:26:11;;;;;;;;;;;7.50;99.90;;;;;;5043117;28;19924;-70
2021/12/08 13:28:52;;;;;;;;;;;7.40;99.90;;;;;;5042873;28;19921;-71
2021/12/08 13:31:30;;;;;;;;;;;7.10;99.90;;;;;;5042687;28;19970;-70
2021/12/08 13:34:04;;;;;;;;;;;7.20;99.90;;;;;;5044022;28;19917;-71
2021/12/08 13:36:32;;;;;;;;;;;7.50;99.90;;;;;;5043105;28;20436;-71
2021/12/08 13:38:57;;;;;;;;;;;7.30;99.90;;;;;;5043056;28;20048;-70
2021/12/08 13:41:24;;;;;;;;;;;7.40;99.90;;;;;;5044303;28;19956;-69
2021/12/08 13:43:50;;;;;;;14.23;3.80;;;7.40;99.90;;;;;;5040985;28;20858;-70
2021/12/08 13:46:42;;;;;;;7.85;3.05;;;7.30;99.90;;;;;;5043674;28;20038;-69
2021/12/08 13:49:19;;;;;;;8.27;2.72;;;7.40;99.90;;;;;;5043797;28;20045;-70
2021/12/08 13:52:00;;;;;;;5.95;2.40;;;7.50;99.90;;;;;;5042357;28;20105;-70
2021/12/08 13:54:36;;;;;;;7.78;2.45;;;7.50;99.90;;;;;;5042096;28;20137;-69
2021/12/08 13:57:22;;;;;;;5.10;2.45;;;7.50;99.90;;;;;;5042332;28;20429;-69
2021/12/08 14:00:08;;;;;;;9.55;2.75;;;7.40;99.90;;;;;;5037750;28;20099;-68
2021/12/08 14:02:36;;;;;;;6.00;2.78;;;7.30;99.90;;;;;;5029948;28;20492;-67
2021/12/08 14:05:30;;;;;;;20.65;4.20;;;7.50;99.90;;;;;;5030555;28;20034;-70
2021/12/08 14:08:17;;;;;;;10.18;2.40;;;7.50;99.90;;;;;;5026741;28;20069;-71
2021/12/08 14:10:51;;;;;;;10.13;2.97;;;7.40;99.90;;;;;;5028537;28;20059;-71